Time;durP1;ratioP1;P1;durP2;ratioP2;P2;SDS_P1;SDS_P2;PMS_P1;PMS_P2;Temp;Humidity;BMP_temperature;BMP_pressure;BME280_temperature;BME280_humidity;BME280_pressure;Samples;Min_cycle;Max_cycle;Signal;HPM_P1;HPM_P2
2021/08/16 00:00:38;;;;;;;3.58;2.20;;;23.10;61.90;;;;;;5113382;28;20173;-61
2021/08/16 00:03:04;;;;;;;3.78;2.00;;;23.10;61.90;;;;;;5112766;28;20226;-62
2021/08/16 00:05:29;;;;;;;3.58;2.13;;;23.10;61.90;;;;;;5113061;28;20180;-62
2021/08/16 00:07:55;;;;;;;3.00;2.08;;;23.10;61.90;;;;;;5113440;28;20193;-61
2021/08/16 00:10:20;;;;;;;4.20;2.03;;;23.10;62.00;;;;;;5112179;28;20543;-61
2021/08/16 00:12:46;;;;;;;3.45;2.25;;;23.10;61.90;;;;;;5113313;28;20169;-62
2021/08/16 00:15:11;;;;;;;3.10;2.13;;;23.10;61.90;;;;;;5112962;28;20273;-62
2021/08/16 00:17:49;;;;;;;2.78;1.95;;;23.00;61.80;;;;;;5112249;28;20700;-61
2021/08/16 00:20:15;;;;;;;3.70;2.03;;;23.00;61.90;;;;;;5113117;28;20177;-61
2021/08/16 00:22:40;;;;;;;4.22;2.35;;;23.00;61.80;;;;;;5112475;28;20235;-61
2021/08/16 00:25:06;;;;;;;2.92;2.20;;;23.00;61.80;;;;;;5112500;28;20258;-61
2021/08/16 00:27:32;;;;;;;3.08;1.85;;;23.00;61.80;;;;;;5112804;28;20177;-62
2021/08/16 00:29:57;;;;;;;5.85;2.25;;;23.00;61.70;;;;;;5113269;28;20162;-61
2021/08/16 00:32:26;;;;;;;3.40;2.25;;;23.00;61.80;;;;;;5111971;28;20230;-62
2021/08/16 00:34:54;;;;;;;3.65;2.08;;;23.00;61.70;;;;;;5112780;28;20239;-62
2021/08/16 00:37:20;;;;;;;2.80;2.20;;;23.00;61.70;;;;;;5112426;28;20168;-62
2021/08/16 00:39:45;;;;;;;4.57;2.30;;;23.00;61.80;;;;;;5112201;28;20176;-61
2021/08/16 00:42:12;;;;;;;4.80;2.42;;;23.00;61.70;;;;;;5112776;28;20648;-62
2021/08/16 00:44:38;;;;;;;3.95;2.22;;;23.00;61.70;;;;;;5111594;28;20173;-62
2021/08/16 00:47:03;;;;;;;4.25;2.22;;;23.00;61.80;;;;;;5112793;28;20527;-62
2021/08/16 00:49:29;;;;;;;5.80;2.10;;;23.00;61.80;;;;;;5093929;28;20596;-61
2021/08/16 00:51:54;;;;;;;3.30;2.10;;;23.00;61.80;;;;;;5111773;28;20169;-62
2021/08/16 00:54:21;;;;;;;4.10;2.10;;;23.00;61.70;;;;;;5094146;28;20208;-61
2021/08/16 00:56:46;;;;;;;3.00;2.17;;;23.00;61.70;;;;;;5112368;28;20624;-61
2021/08/16 00:59:12;;;;;;;3.80;2.13;;;23.00;61.80;;;;;;5111906;28;20257;-62
2021/08/16 01:01:41;;;;;;;3.55;1.90;;;23.00;61.80;;;;;;5094024;28;20165;-62
2021/08/16 01:04:06;;;;;;;3.30;2.10;;;23.00;61.70;;;;;;5112297;28;20505;-62
2021/08/16 01:06:32;;;;;;;3.90;1.80;;;23.00;62.70;;;;;;5111371;28;20180;-62
2021/08/16 01:08:57;;;;;;;4.45;2.28;;;23.00;61.70;;;;;;5112300;28;20176;-61
2021/08/16 01:11:23;;;;;;;4.05;2.22;;;23.00;61.70;;;;;;5112023;28;20646;-61
2021/08/16 01:13:49;;;;;;;3.85;2.58;;;23.00;61.70;;;;;;5111533;28;20208;-62
2021/08/16 01:16:15;;;;;;;4.10;2.13;;;23.00;61.80;;;;;;5112349;28;20608;-61
2021/08/16 01:18:41;;;;;;;4.57;2.35;;;23.00;61.80;;;;;;5112014;28;20183;-61
2021/08/16 01:21:08;;;;;;;4.13;2.45;;;23.00;61.80;;;;;;5111582;28;20165;-60
2021/08/16 01:23:34;;;;;;;5.30;2.42;;;23.00;61.80;;;;;;5111724;28;20221;-61
2021/08/16 01:26:00;;;;;;;5.65;2.70;;;23.00;61.80;;;;;;5112456;28;20256;-61
2021/08/16 01:28:25;;;;;;;2.70;2.13;;;23.00;61.80;;;;;;5111529;28;20208;-61
2021/08/16 01:30:59;;;;;;;2.85;1.80;;;23.00;61.80;;;;;;5112353;28;20172;-61
2021/08/16 01:33:27;;;;;;;2.38;1.90;;;23.00;61.90;;;;;;5111989;28;20183;-62
2021/08/16 01:35:52;;;;;;;3.80;2.10;;;23.00;61.90;;;;;;5111712;28;20587;-62
2021/08/16 01:38:19;;;;;;;2.70;1.70;;;22.90;61.80;;;;;;5112148;28;20627;-61
2021/08/16 01:40:45;;;;;;;4.80;2.55;;;22.90;61.80;;;;;;5112220;28;20237;-62
2021/08/16 01:43:11;;;;;;;6.80;2.50;;;22.90;61.80;;;;;;5113596;28;20169;-62
2021/08/16 01:45:36;;;;;;;5.53;2.17;;;22.90;62.60;;;;;;5115791;28;20188;-62
2021/08/16 01:48:02;;;;;;;5.35;2.20;;;22.90;62.70;;;;;;5115539;28;20176;-62
2021/08/16 01:50:27;;;;;;;3.13;2.10;;;22.90;61.90;;;;;;5115848;28;20181;-61
2021/08/16 01:52:53;;;;;;;4.20;2.08;;;22.90;61.90;;;;;;5116051;28;20623;-62
2021/08/16 01:55:18;;;;;;;4.93;2.47;;;22.90;61.90;;;;;;5115065;28;20228;-62
2021/08/16 01:57:44;;;;;;;3.53;2.10;;;22.90;61.80;;;;;;5115739;28;20672;-62
2021/08/16 02:00:10;;;;;;;3.85;2.28;;;22.90;61.90;;;;;;5115875;28;20177;-62
2021/08/16 02:02:35;;;;;;;5.07;2.33;;;22.90;61.80;;;;;;5114615;28;20722;-62
2021/08/16 02:05:01;;;;;;;3.88;2.03;;;22.90;61.90;;;;;;5116007;28;20264;-62
2021/08/16 02:07:26;;;;;;;6.05;2.60;;;22.90;61.90;;;;;;5115381;28;20646;-62
2021/08/16 02:09:52;;;;;;;4.10;2.15;;;22.90;61.90;;;;;;5114748;28;20598;-61
2021/08/16 02:12:17;;;;;;;5.50;2.63;;;22.90;61.80;;;;;;5115758;28;20173;-62
2021/08/16 02:14:43;;;;;;;4.00;2.10;;;22.90;61.90;;;;;;5115061;28;20205;-61
2021/08/16 02:17:08;;;;;;;5.22;2.30;;;22.90;61.90;;;;;;5114818;28;20173;-61
2021/08/16 02:19:34;;;;;;;3.88;2.20;;;22.90;61.90;;;;;;5115397;28;20181;-61
2021/08/16 02:22:00;;;;;;;4.15;2.20;;;22.90;61.90;;;;;;5115526;28;20197;-60
2021/08/16 02:24:25;;;;;;;5.20;2.33;;;22.90;61.90;;;;;;5114205;28;20224;-60
2021/08/16 02:26:51;;;;;;;3.42;2.10;;;22.90;61.90;;;;;;5115254;28;20173;-61
2021/08/16 02:29:16;;;;;;;3.63;1.90;;;22.90;61.90;;;;;;5115300;28;20595;-61
2021/08/16 02:31:42;;;;;;;3.60;2.15;;;22.90;61.90;;;;;;5114172;28;20655;-62
2021/08/16 02:34:07;;;;;;;6.55;2.55;;;22.90;61.90;;;;;;5115062;28;20224;-62
2021/08/16 02:36:33;;;;;;;3.50;2.10;;;22.90;61.90;;;;;;5115027;28;20203;-62
2021/08/16 02:38:58;;;;;;;4.68;2.20;;;22.90;61.90;;;;;;5114610;28;20247;-61
2021/08/16 02:41:24;;;;;;;6.53;2.30;;;22.80;61.80;;;;;;5114732;28;20624;-62
2021/08/16 02:43:49;;;;;;;5.55;2.70;;;22.80;61.80;;;;;;5114629;28;20182;-61
2021/08/16 02:46:15;;;;;;;4.65;2.55;;;22.80;61.90;;;;;;5114271;28;20180;-61
2021/08/16 02:48:40;;;;;;;3.72;2.17;;;22.80;61.80;;;;;;5114404;28;20180;-61
2021/08/16 02:51:06;;;;;;;5.10;2.88;;;22.80;61.90;;;;;;5114767;28;20558;-61
2021/08/16 02:53:31;;;;;;;4.22;2.35;;;22.80;61.80;;;;;;5113782;28;20220;-62
2021/08/16 02:55:57;;;;;;;4.22;2.50;;;22.80;61.90;;;;;;5114818;28;20264;-61
2021/08/16 02:58:23;;;;;;;2.58;1.80;;;22.80;61.90;;;;;;5113566;28;20518;-62
2021/08/16 03:00:49;;;;;;;5.78;2.60;;;22.80;61.90;;;;;;5114683;28;20196;-63
2021/08/16 03:03:14;;;;;;;5.53;2.30;;;22.80;61.90;;;;;;5114660;28;20177;-61
2021/08/16 03:05:40;;;;;;;7.93;2.35;;;22.80;61.90;;;;;;5113843;28;20169;-62
2021/08/16 03:08:05;;;;;;;5.53;2.10;;;22.80;61.90;;;;;;5114448;28;20200;-61
2021/08/16 03:10:32;;;;;;;4.80;2.30;;;22.80;61.90;;;;;;5114073;28;20653;-62
2021/08/16 03:12:59;;;;;;;3.08;1.80;;;22.90;62.00;;;;;;5113788;28;20318;-61
2021/08/16 03:15:24;;;;;;;3.97;2.30;;;22.80;62.00;;;;;;5113884;28;20652;-61
2021/08/16 03:17:50;;;;;;;4.15;2.10;;;22.80;61.90;;;;;;5114484;28;20256;-61
2021/08/16 03:20:15;;;;;;;5.25;2.28;;;22.80;62.00;;;;;;5113848;28;20712;-61
2021/08/16 03:22:41;;;;;;;4.47;2.30;;;22.80;61.90;;;;;;5113940;28;20253;-61
2021/08/16 03:25:07;;;;;;;4.80;2.05;;;22.80;61.90;;;;;;5114308;28;20263;-61
2021/08/16 03:27:32;;;;;;;3.58;2.22;;;22.80;62.00;;;;;;5112903;28;20205;-61
2021/08/16 03:29:58;;;;;;;4.40;2.33;;;22.80;62.00;;;;;;5114064;28;20181;-62
2021/08/16 03:32:23;;;;;;;5.25;2.50;;;22.80;62.00;;;;;;5113621;28;20650;-62
2021/08/16 03:34:49;;;;;;;4.03;1.70;;;22.80;62.00;;;;;;5113182;28;20208;-62
2021/08/16 03:37:15;;;;;;;5.63;2.72;;;22.80;62.00;;;;;;5114131;28;20647;-62
2021/08/16 03:39:41;;;;;;;2.85;1.70;;;22.70;61.90;;;;;;5113641;28;20208;-62
2021/08/16 03:42:06;;;;;;;2.38;1.80;;;22.80;62.10;;;;;;5113253;28;20209;-62
2021/08/16 03:44:32;;;;;;;3.13;1.83;;;22.80;62.00;;;;;;5113400;28;20212;-62
2021/08/16 03:46:58;;;;;;;6.35;2.67;;;22.80;62.10;;;;;;5113180;28;20290;-61
2021/08/16 03:49:23;;;;;;;3.55;1.90;;;22.80;62.10;;;;;;5112708;28;20173;-61
2021/08/16 03:51:49;;;;;;;4.07;2.75;;;22.80;62.00;;;;;;5113800;28;20193;-61
2021/08/16 03:54:14;;;;;;;5.40;2.60;;;22.80;62.10;;;;;;5113626;28;20258;-62
2021/08/16 03:56:40;;;;;;;5.03;2.50;;;22.80;62.10;;;;;;5112595;28;20925;-62
2021/08/16 03:59:05;;;;;;;4.15;1.98;;;22.70;62.00;;;;;;5113357;28;20702;-62
2021/08/16 04:01:31;;;;;;;3.70;1.90;;;22.70;62.00;;;;;;5112940;28;20177;-62
2021/08/16 04:04:00;;;;;;;3.58;2.03;;;22.70;62.00;;;;;;5112838;28;20169;-62
2021/08/16 04:06:26;;;;;;;4.35;2.25;;;22.70;62.10;;;;;;5112346;28;20256;-62
2021/08/16 04:08:51;;;;;;;4.90;2.35;;;22.70;62.00;;;;;;5112327;28;20640;-62
2021/08/16 04:11:17;;;;;;;4.57;2.30;;;22.80;62.10;;;;;;5112915;28;20310;-61
2021/08/16 04:13:42;;;;;;;4.47;1.90;;;22.70;62.00;;;;;;5112573;28;20217;-62
2021/08/16 04:16:08;;;;;;;4.95;2.30;;;22.70;62.00;;;;;;5112332;28;20173;-62
2021/08/16 04:18:33;;;;;;;3.83;1.80;;;22.70;62.00;;;;;;5112496;28;20200;-61
2021/08/16 04:20:59;;;;;;;3.90;2.17;;;22.70;62.10;;;;;;5113064;28;20649;-61
2021/08/16 04:23:24;;;;;;;3.58;1.95;;;22.70;62.00;;;;;;5111757;28;20569;-60
2021/08/16 04:25:50;;;;;;;4.28;2.10;;;22.70;62.10;;;;;;5113031;28;20207;-60
2021/08/16 04:28:16;;;;;;;4.75;2.05;;;22.70;62.10;;;;;;5112993;28;20177;-61
2021/08/16 04:30:41;;;;;;;6.07;2.10;;;22.70;62.10;;;;;;5111890;28;20176;-61
2021/08/16 04:33:07;;;;;;;6.30;2.30;;;22.70;62.10;;;;;;5112967;28;20173;-61
2021/08/16 04:35:32;;;;;;;4.22;1.77;;;22.70;62.10;;;;;;5112727;28;20215;-62
2021/08/16 04:37:58;;;;;;;3.30;1.88;;;22.70;62.10;;;;;;5112039;28;20188;-62
2021/08/16 04:40:23;;;;;;;3.40;1.77;;;22.70;62.10;;;;;;5112487;28;20177;-61
2021/08/16 04:42:49;;;;;;;4.18;2.05;;;22.70;62.10;;;;;;5112759;28;20246;-62
2021/08/16 04:45:14;;;;;;;3.70;2.38;;;22.70;62.10;;;;;;5111938;28;20299;-62
2021/08/16 04:47:46;;;;;;;4.38;2.00;;;22.70;62.10;;;;;;5112473;28;20223;-61
2021/08/16 04:50:12;;;;;;;4.15;2.13;;;22.70;62.10;;;;;;5112610;28;20609;-62
2021/08/16 04:52:38;;;;;;;3.70;1.95;;;22.70;62.10;;;;;;5111622;28;20172;-61
2021/08/16 04:55:04;;;;;;;4.68;2.00;;;22.70;62.10;;;;;;5112645;28;20542;-62
2021/08/16 04:57:37;;;;;;;3.05;1.70;;;22.70;62.10;;;;;;5112228;28;20173;-61
2021/08/16 05:00:10;;;;;;;4.18;2.10;;;22.70;62.10;;;;;;5112110;28;20238;-62
2021/08/16 05:02:36;;;;;;;5.93;2.20;;;22.70;62.10;;;;;;5112268;28;20177;-61
2021/08/16 05:05:10;;;;;;;4.45;2.15;;;22.70;62.10;;;;;;5111736;28;20185;-62
2021/08/16 05:07:36;;;;;;;3.42;1.80;;;22.70;62.10;;;;;;5095152;28;20570;-62
2021/08/16 05:10:01;;;;;;;6.13;2.15;;;22.70;62.10;;;;;;5112257;28;20252;-62
2021/08/16 05:12:27;;;;;;;2.78;2.08;;;22.70;62.20;;;;;;5111480;28;20177;-61
2021/08/16 05:14:53;;;;;;;4.57;2.03;;;22.70;62.10;;;;;;5112263;28;20607;-62
2021/08/16 05:17:19;;;;;;;3.83;2.13;;;22.70;62.10;;;;;;5113058;28;20710;-60
2021/08/16 05:19:44;;;;;;;2.78;1.70;;;22.70;62.20;;;;;;5115649;28;20195;-61
2021/08/16 05:22:10;;;;;;;4.00;2.05;;;22.70;62.10;;;;;;5116552;28;20173;-60
2021/08/16 05:24:35;;;;;;;3.65;2.15;;;22.70;62.10;;;;;;5116145;28;20224;-61
2021/08/16 05:27:01;;;;;;;4.80;2.15;;;22.70;62.10;;;;;;5115707;28;20173;-61
2021/08/16 05:29:26;;;;;;;4.15;2.00;;;22.70;62.20;;;;;;5116103;28;20200;-61
2021/08/16 05:31:52;;;;;;;5.60;2.45;;;22.70;62.20;;;;;;5116537;28;20199;-61
2021/08/16 05:34:18;;;;;;;5.43;2.42;;;22.70;62.20;;;;;;5115543;28;20215;-62
2021/08/16 05:36:43;;;;;;;3.53;1.80;;;22.70;62.20;;;;;;5116010;28;20180;-62
2021/08/16 05:39:08;;;;;;;7.90;2.08;;;22.70;62.20;;;;;;5116393;28;20192;-62
2021/08/16 05:41:34;;;;;;;4.78;2.30;;;22.70;62.20;;;;;;5115346;28;20169;-61
2021/08/16 05:43:59;;;;;;;3.08;1.95;;;22.70;62.20;;;;;;5116409;28;20204;-62
2021/08/16 05:46:25;;;;;;;4.30;1.73;;;22.70;62.20;;;;;;5115894;28;20503;-61
2021/08/16 05:48:50;;;;;;;5.03;2.55;;;22.70;62.20;;;;;;5115482;28;20298;-62
2021/08/16 05:51:16;;;;;;;4.20;2.42;;;22.70;62.20;;;;;;5116138;28;20251;-62
2021/08/16 05:53:41;;;;;;;4.85;1.85;;;22.70;62.20;;;;;;5115685;28;20327;-61
2021/08/16 05:56:10;;;;;;;4.45;2.20;;;22.70;62.10;;;;;;5115113;28;20297;-62
2021/08/16 05:58:35;;;;;;;3.60;1.85;;;22.70;62.10;;;;;;5115893;28;20169;-61
2021/08/16 06:01:01;;;;;;;3.83;1.90;;;22.70;62.10;;;;;;5115991;28;20183;-62
2021/08/16 06:03:26;;;;;;;4.13;2.03;;;22.70;62.10;;;;;;5114672;28;20500;-62
2021/08/16 06:05:52;;;;;;;2.50;2.03;;;22.70;62.10;;;;;;5115707;28;20174;-62
2021/08/16 06:08:17;;;;;;;5.47;2.35;;;22.70;62.10;;;;;;5114846;28;20169;-61
2021/08/16 06:10:43;;;;;;;3.47;2.17;;;22.70;62.10;;;;;;5115267;28;20183;-61
2021/08/16 06:13:08;;;;;;;3.00;1.90;;;22.70;62.20;;;;;;5115710;28;20176;-61
2021/08/16 06:15:34;;;;;;;5.57;1.90;;;22.70;62.20;;;;;;5114523;28;20223;-61
2021/08/16 06:17:59;;;;;;;3.63;1.83;;;22.70;62.30;;;;;;5115389;28;20511;-61
2021/08/16 06:20:25;;;;;;;4.72;2.15;;;22.70;62.20;;;;;;5115185;28;20177;-61
2021/08/16 06:22:50;;;;;;;3.40;2.00;;;22.60;62.20;;;;;;5114481;28;20224;-60
2021/08/16 06:25:16;;;;;;;3.35;2.33;;;22.60;62.20;;;;;;5115095;28;20177;-60
2021/08/16 06:27:41;;;;;;;3.60;2.20;;;22.60;62.10;;;;;;5114613;28;20317;-61
2021/08/16 06:30:08;;;;;;;4.82;2.38;;;22.70;62.20;;;;;;5113734;28;20226;-62
2021/08/16 06:32:34;;;;;;;4.22;2.35;;;22.70;62.20;;;;;;5114814;28;20253;-63
2021/08/16 06:35:00;;;;;;;7.40;2.92;;;22.70;62.30;;;;;;5115104;28;20744;-63
2021/08/16 06:37:29;;;;;;;5.72;2.38;;;22.70;62.20;;;;;;5114130;28;20177;-62
2021/08/16 06:39:55;;;;;;;4.57;2.40;;;22.70;62.40;;;;;;5115107;28;20553;-63
2021/08/16 06:42:20;;;;;;;5.40;2.80;;;22.60;62.30;;;;;;5114753;28;20638;-61
2021/08/16 06:44:46;;;;;;;6.85;2.42;;;22.60;62.60;;;;;;5114573;28;20661;-62
2021/08/16 06:47:12;;;;;;;3.88;2.20;;;22.60;62.70;;;;;;5115127;28;20161;-62
2021/08/16 06:49:38;;;;;;;12.43;3.70;;;22.60;62.60;;;;;;5114645;28;20515;-62
2021/08/16 06:52:03;;;;;;;7.43;3.15;;;22.60;62.70;;;;;;5114901;27;20208;-61
2021/08/16 06:54:29;;;;;;;5.53;2.70;;;22.60;62.70;;;;;;5131021;27;20572;-61
2021/08/16 06:56:54;;;;;;;5.72;2.75;;;22.60;62.60;;;;;;5116450;27;20688;-61
2021/08/16 06:59:20;;;;;;;7.38;3.35;;;22.60;62.70;;;;;;5113994;28;20181;-62
2021/08/16 07:01:46;;;;;;;7.03;3.13;;;22.60;62.70;;;;;;5114717;28;20173;-62
2021/08/16 07:04:11;;;;;;;3.70;2.83;;;22.60;62.70;;;;;;5114780;28;20245;-62
2021/08/16 07:06:37;;;;;;;3.25;2.40;;;22.60;62.70;;;;;;5113513;28;20710;-62
2021/08/16 07:09:02;;;;;;;6.45;3.22;;;22.60;62.70;;;;;;5114166;28;20982;-62
2021/08/16 07:11:28;;;;;;;6.53;3.40;;;22.60;62.70;;;;;;5113342;28;20219;-63
2021/08/16 07:13:53;;;;;;;5.97;3.15;;;22.60;62.70;;;;;;5113647;28;20196;-62
2021/08/16 07:16:21;;;;;;;5.38;3.08;;;22.60;62.80;;;;;;5113993;28;20181;-63
2021/08/16 07:18:47;;;;;;;7.22;3.35;;;22.60;62.80;;;;;;5113228;28;20630;-62
2021/08/16 07:21:12;;;;;;;4.93;2.90;;;22.60;62.90;;;;;;5113936;28;20165;-61
2021/08/16 07:23:38;;;;;;;7.43;2.92;;;22.60;62.90;;;;;;5113443;28;20237;-61
2021/08/16 07:26:05;;;;;;;5.13;3.90;;;22.60;63.00;;;;;;5113130;28;20512;-61
2021/08/16 07:28:31;;;;;;;6.25;2.80;;;22.60;63.00;;;;;;5113860;28;20180;-62
2021/08/16 07:30:57;;;;;;;5.55;3.15;;;22.60;62.90;;;;;;5113944;28;20173;-63
2021/08/16 07:33:22;;;;;;;5.80;2.92;;;22.60;62.90;;;;;;5112854;28;20268;-62
2021/08/16 07:35:48;;;;;;;8.43;3.55;;;22.60;62.90;;;;;;5113772;28;20292;-63
2021/08/16 07:38:13;;;;;;;6.10;3.20;;;22.60;62.90;;;;;;5113934;28;20515;-63
2021/08/16 07:40:39;;;;;;;6.45;3.22;;;22.50;62.80;;;;;;5111849;28;20229;-63
2021/08/16 07:43:04;;;;;;;5.68;3.13;;;22.50;62.80;;;;;;5113734;28;20196;-63
2021/08/16 07:45:30;;;;;;;3.90;2.67;;;22.60;63.00;;;;;;5113208;28;20578;-62
2021/08/16 07:47:56;;;;;;;6.60;2.92;;;22.60;63.00;;;;;;5112873;28;20222;-63
2021/08/16 07:50:22;;;;;;;4.63;3.08;;;22.60;63.00;;;;;;5113344;28;20680;-61
2021/08/16 07:52:47;;;;;;;6.30;2.80;;;22.60;63.00;;;;;;5113448;28;20177;-61
2021/08/16 07:55:13;;;;;;;4.80;2.70;;;22.60;63.00;;;;;;5112976;28;20309;-61
2021/08/16 07:57:38;;;;;;;4.30;2.95;;;22.60;63.00;;;;;;5113346;28;20192;-61
2021/08/16 08:00:06;;;;;;;3.25;2.60;;;22.60;62.90;;;;;;5113370;28;20534;-62
2021/08/16 08:02:45;;;;;;;5.13;2.85;;;22.60;63.00;;;;;;5112240;28;20589;-61
2021/08/16 08:05:12;;;;;;;4.28;2.67;;;22.60;62.90;;;;;;5113237;28;20229;-61
2021/08/16 08:07:38;;;;;;;4.13;2.78;;;22.60;62.90;;;;;;5113172;28;20180;-61
2021/08/16 08:10:04;;;;;;;2.97;2.47;;;22.70;62.90;;;;;;5112595;28;20606;-61
2021/08/16 08:12:30;;;;;;;3.38;2.45;;;22.70;62.80;;;;;;5112770;28;20260;-61
2021/08/16 08:14:55;;;;;;;2.85;2.53;;;22.70;62.80;;;;;;5112399;28;20307;-61
2021/08/16 08:17:21;;;;;;;3.85;2.42;;;22.70;62.80;;;;;;5112889;28;20591;-60
2021/08/16 08:19:46;;;;;;;4.25;2.10;;;22.70;62.90;;;;;;5112892;28;20185;-60
2021/08/16 08:22:12;;;;;;;3.13;2.83;;;22.60;63.00;;;;;;5112448;28;20230;-59
2021/08/16 08:24:38;;;;;;;3.85;2.30;;;22.60;63.10;;;;;;5112482;28;20224;-60
2021/08/16 08:27:03;;;;;;;3.38;2.47;;;22.60;63.10;;;;;;5112994;28;20174;-59
2021/08/16 08:29:29;;;;;;;2.90;2.20;;;22.60;63.20;;;;;;5112052;28;20180;-61
2021/08/16 08:31:54;;;;;;;3.55;2.10;;;22.60;63.40;;;;;;5112268;28;20185;-61
2021/08/16 08:34:20;;;;;;;2.88;2.42;;;22.60;63.30;;;;;;5112438;28;20200;-60
2021/08/16 08:36:45;;;;;;;2.15;1.95;;;22.60;63.30;;;;;;5112337;28;20230;-61
2021/08/16 08:39:11;;;;;;;2.80;2.20;;;22.70;63.10;;;;;;5113048;28;20169;-61
2021/08/16 08:41:37;;;;;;;2.30;2.10;;;22.70;63.10;;;;;;5112545;28;20222;-60
2021/08/16 08:44:10;;;;;;;4.53;2.40;;;22.70;63.10;;;;;;5112062;28;20650;-61
2021/08/16 08:46:38;;;;;;;2.33;2.03;;;22.70;63.00;;;;;;5112506;28;20181;-61
2021/08/16 08:49:04;;;;;;;2.65;2.20;;;22.70;62.90;;;;;;5094871;28;20176;-60
2021/08/16 08:51:30;;;;;;;3.20;2.28;;;22.70;62.90;;;;;;5111785;28;20169;-60
2021/08/16 08:53:55;;;;;;;3.13;2.00;;;22.70;62.90;;;;;;5112811;28;20197;-60
2021/08/16 08:56:21;;;;;;;5.10;2.50;;;22.70;62.80;;;;;;5112420;28;20576;-60
2021/08/16 08:58:46;;;;;;;2.95;2.10;;;22.70;62.70;;;;;;5111679;28;20183;-60
2021/08/16 09:01:12;;;;;;;2.53;2.15;;;22.70;62.60;;;;;;5112590;28;20588;-60
2021/08/16 09:03:50;;;;;;;4.00;2.40;;;22.80;62.60;;;;;;5112150;28;20188;-61
2021/08/16 09:06:35;;;;;;;3.63;2.05;;;22.80;62.70;;;;;;5112048;28;20275;-61
2021/08/16 09:09:00;;;;;;;2.65;1.90;;;22.80;62.60;;;;;;5112486;28;20173;-61
2021/08/16 09:11:27;;;;;;;4.82;2.17;;;22.80;62.60;;;;;;5111559;28;20280;-62
2021/08/16 09:13:57;;;;;;;2.72;1.92;;;22.80;62.60;;;;;;5112292;28;20193;-62
2021/08/16 09:16:23;;;;;;;3.40;1.90;;;22.80;62.60;;;;;;5112204;28;20180;-61
2021/08/16 09:18:49;;;;;;;2.75;1.90;;;22.80;62.60;;;;;;5111749;28;20198;-61
2021/08/16 09:21:37;;;;;;;4.35;2.05;;;22.80;62.50;;;;;;5115046;28;20176;-61
2021/08/16 09:24:04;;;;;;;2.35;1.92;;;22.80;62.50;;;;;;5123038;28;20247;-63
2021/08/16 09:26:35;;;;;;;3.38;2.20;;;22.90;62.50;;;;;;5129713;28;20173;-65
2021/08/16 09:29:13;;;;;;;5.00;2.10;;;22.90;62.40;;;;;;5133149;28;20179;-64
2021/08/16 09:31:49;;;;;;;4.38;1.85;;;22.90;62.30;;;;;;5132683;28;20518;-66
2021/08/16 09:34:14;;;;;;;3.78;2.53;;;22.90;62.40;;;;;;5131811;28;20687;-65
2021/08/16 09:36:41;;;;;;;4.50;1.88;;;22.90;62.60;;;;;;5113813;28;20204;-61
2021/08/16 09:39:34;;;;;;;3.45;2.13;;;22.90;62.80;;;;;;5133321;28;20195;-61
2021/08/16 09:42:00;;;;;;;4.75;1.80;;;22.90;62.80;;;;;;5129635;28;20606;-61
2021/08/16 09:44:26;;;;;;;3.25;1.85;;;22.80;62.90;;;;;;5132379;28;20173;-61
2021/08/16 09:47:05;;;;;;;5.60;2.03;;;22.80;62.80;;;;;;5131857;28;20176;-63
2021/08/16 09:49:31;;;;;;;3.00;2.00;;;22.80;62.80;;;;;;5132184;28;20177;-61
2021/08/16 09:52:07;;;;;;;4.70;2.25;;;22.80;62.80;;;;;;5132682;28;20333;-61
2021/08/16 09:54:33;;;;;;;4.80;1.90;;;22.80;62.80;;;;;;5131279;28;20231;-61
2021/08/16 09:57:03;;;;;;;3.03;1.85;;;22.80;62.80;;;;;;5132586;28;20205;-62
2021/08/16 09:59:33;;;;;;;2.60;1.98;;;22.80;62.80;;;;;;5132348;28;20172;-61
2021/08/16 10:01:59;;;;;;;3.83;2.03;;;22.80;62.70;;;;;;5131752;28;20191;-63
2021/08/16 10:04:24;;;;;;;2.72;1.70;;;22.90;62.80;;;;;;5134566;27;20529;-66
2021/08/16 10:06:53;;;;;;;2.58;1.73;;;22.90;62.60;;;;;;5136516;27;20169;-64
2021/08/16 10:09:21;;;;;;;3.53;1.90;;;22.90;62.50;;;;;;5117837;27;20176;-65
2021/08/16 10:11:50;;;;;;;4.13;2.10;;;23.00;62.50;;;;;;5118030;27;20184;-61
2021/08/16 10:14:20;;;;;;;4.00;2.10;;;23.00;62.70;;;;;;5117713;27;20220;-61
2021/08/16 10:16:49;;;;;;;4.93;2.30;;;23.00;62.60;;;;;;5118008;27;20532;-60
2021/08/16 10:19:17;;;;;;;3.97;2.00;;;23.00;62.70;;;;;;5117905;27;20633;-61
2021/08/16 10:21:42;;;;;;;2.75;2.08;;;23.00;62.70;;;;;;5116915;27;20176;-61
2021/08/16 10:24:33;;;;;;;2.78;2.05;;;23.00;62.80;;;;;;5117538;27;20692;-62
2021/08/16 10:27:00;;;;;;;2.92;1.80;;;23.10;62.60;;;;;;5135860;27;20249;-62
2021/08/16 10:29:26;;;;;;;4.65;2.00;;;23.20;62.30;;;;;;5134860;27;20172;-61
2021/08/16 10:31:53;;;;;;;3.03;1.98;;;23.30;62.10;;;;;;5136060;27;20256;-61
2021/08/16 10:34:28;;;;;;;4.35;2.28;;;23.30;62.00;;;;;;5135733;27;20606;-62
2021/08/16 10:37:04;;;;;;;4.82;2.00;;;23.30;61.90;;;;;;5134949;27;20168;-62
2021/08/16 10:39:46;;;;;;;4.63;2.15;;;23.50;61.70;;;;;;5135361;27;20223;-62
2021/08/16 10:42:16;;;;;;;3.25;1.70;;;23.50;61.50;;;;;;5135964;27;20173;-62
2021/08/16 10:44:52;;;;;;;2.88;1.98;;;23.50;61.70;;;;;;5134990;27;20561;-61
2021/08/16 10:47:31;;;;;;;4.28;1.83;;;23.40;61.90;;;;;;5135645;27;20176;-60
2021/08/16 10:50:06;;;;;;;4.38;2.10;;;23.50;61.90;;;;;;5134837;27;20183;-61
2021/08/16 10:52:31;;;;;;;4.47;1.80;;;23.50;61.80;;;;;;5135412;27;20195;-60
2021/08/16 10:55:17;;;;;;;3.28;2.00;;;23.50;61.90;;;;;;5135631;27;20618;-62
2021/08/16 10:57:43;;;;;;;3.88;2.10;;;23.50;62.00;;;;;;5134432;27;20571;-61
2021/08/16 11:00:11;;;;;;;3.38;1.90;;;23.50;62.00;;;;;;5134716;27;20176;-62
2021/08/16 11:02:36;;;;;;;3.85;2.22;;;23.40;62.00;;;;;;5135115;27;20511;-60
2021/08/16 11:05:03;;;;;;;5.20;2.40;;;23.40;62.10;;;;;;5134336;27;20220;-62
2021/08/16 11:07:29;;;;;;;3.25;2.53;;;23.40;62.20;;;;;;5116585;27;20184;-60
2021/08/16 11:09:59;;;;;;;4.80;2.38;;;23.40;62.20;;;;;;5134835;27;20178;-60
2021/08/16 11:12:34;;;;;;;3.95;2.58;;;23.30;62.20;;;;;;5134079;27;20176;-60
2021/08/16 11:15:03;;;;;;;4.13;1.92;;;23.30;62.20;;;;;;5134944;27;20352;-60
2021/08/16 11:17:29;;;;;;;4.00;2.20;;;23.30;62.20;;;;;;5134695;27;20180;-60
2021/08/16 11:19:57;;;;;;;5.18;2.35;;;23.40;62.20;;;;;;5134332;27;20236;-60
2021/08/16 11:22:23;;;;;;;4.35;2.28;;;23.30;62.90;;;;;;5134397;27;20203;-60
2021/08/16 11:24:48;;;;;;;3.60;2.20;;;23.30;62.30;;;;;;5134233;27;20180;-59
2021/08/16 11:27:19;;;;;;;3.50;2.40;;;23.20;62.40;;;;;;5134758;27;20169;-60
2021/08/16 11:29:55;;;;;;;3.63;2.15;;;23.20;62.50;;;;;;5134788;27;20366;-60
2021/08/16 11:32:23;;;;;;;2.80;1.95;;;23.20;62.60;;;;;;5134006;27;20172;-61
2021/08/16 11:34:56;;;;;;;4.65;2.40;;;23.20;62.50;;;;;;5134654;27;20552;-60
2021/08/16 11:37:23;;;;;;;3.95;2.35;;;23.20;62.50;;;;;;5134456;27;20196;-61
2021/08/16 11:39:49;;;;;;;4.85;2.50;;;23.20;62.40;;;;;;5133839;27;20180;-60
2021/08/16 11:42:15;;;;;;;3.10;2.20;;;23.20;62.30;;;;;;5134766;27;20169;-60
2021/08/16 11:44:40;;;;;;;3.75;2.28;;;23.10;62.40;;;;;;5115686;27;20180;-61
2021/08/16 11:47:06;;;;;;;5.47;2.47;;;23.10;62.20;;;;;;5133814;27;20627;-60
2021/08/16 11:49:38;;;;;;;4.22;2.45;;;23.00;62.20;;;;;;5134131;27;20598;-60
2021/08/16 11:52:04;;;;;;;3.70;2.97;;;23.10;62.30;;;;;;5134373;27;20173;-60
2021/08/16 11:54:33;;;;;;;3.58;2.47;;;23.10;62.10;;;;;;5133050;27;20372;-60
2021/08/16 11:57:00;;;;;;;3.92;2.63;;;23.10;61.90;;;;;;5134299;27;20176;-60
2021/08/16 11:59:25;;;;;;;3.70;2.30;;;23.20;61.80;;;;;;5133982;27;20215;-61
2021/08/16 12:01:51;;;;;;;3.58;2.85;;;23.20;61.80;;;;;;5133390;27;20631;-61
2021/08/16 12:04:17;;;;;;;3.72;2.22;;;23.20;61.80;;;;;;5115799;27;20181;-61
2021/08/16 12:06:43;;;;;;;6.15;2.28;;;23.20;61.80;;;;;;5114599;27;20176;-60
2021/08/16 12:09:09;;;;;;;4.40;2.40;;;23.20;61.90;;;;;;5122312;27;20172;-60
2021/08/16 12:11:34;;;;;;;4.22;2.17;;;23.20;61.90;;;;;;5123578;27;20169;-60
2021/08/16 12:14:01;;;;;;;5.07;2.70;;;23.20;62.00;;;;;;5112053;28;20197;-61
2021/08/16 12:16:31;;;;;;;4.07;2.38;;;23.20;62.10;;;;;;5112655;28;20193;-61
2021/08/16 12:18:56;;;;;;;3.67;2.33;;;23.10;62.10;;;;;;5113190;28;20172;-61
2021/08/16 12:21:22;;;;;;;4.40;2.40;;;23.10;62.20;;;;;;5111848;28;20574;-60
2021/08/16 12:23:58;;;;;;;3.55;2.28;;;23.10;62.20;;;;;;5113067;28;20737;-62
2021/08/16 12:26:31;;;;;;;3.05;2.30;;;23.10;62.30;;;;;;5112360;28;20517;-61
2021/08/16 12:28:57;;;;;;;6.38;2.50;;;23.10;62.20;;;;;;5112285;28;20226;-61
2021/08/16 12:31:27;;;;;;;2.78;2.20;;;23.20;62.20;;;;;;5112881;28;20169;-61
2021/08/16 12:34:02;;;;;;;3.72;2.08;;;23.20;62.20;;;;;;5112851;28;20177;-61
2021/08/16 12:36:54;;;;;;;4.03;2.53;;;23.20;62.10;;;;;;5112133;28;20176;-60
2021/08/16 12:39:19;;;;;;;2.45;2.25;;;23.20;62.20;;;;;;5102494;28;20192;-61
2021/08/16 12:41:45;;;;;;;2.70;2.40;;;23.10;62.20;;;;;;5112618;28;20257;-61
2021/08/16 12:44:21;;;;;;;2.67;2.22;;;23.10;62.10;;;;;;5112237;28;20620;-62
2021/08/16 12:47:01;;;;;;;3.33;2.10;;;23.10;62.20;;;;;;5113035;28;20180;-61